sensor_id;sensor_type;location;lat;lon;timestamp;P1;durP1;ratioP1;P2;durP2;ratioP2
51020;SDS011;38907;45.562;8.856;2024-01-15T00:00:21;96.43;;;71.93;;
51020;SDS011;38907;45.562;8.856;2024-01-15T00:05:23;92.72;;;70.07;;
51020;SDS011;38907;45.562;8.856;2024-01-15T00:10:27;86.90;;;66.80;;
51020;SDS011;38907;45.562;8.856;2024-01-15T00:15:29;86.93;;;65.80;;
51020;SDS011;38907;45.562;8.856;2024-01-15T00:20:30;85.55;;;65.63;;
51020;SDS011;38907;45.562;8.856;2024-01-15T00:25:34;91.20;;;65.28;;
51020;SDS011;38907;45.562;8.856;2024-01-15T00:30:35;89.95;;;66.88;;
51020;SDS011;38907;45.562;8.856;2024-01-15T00:35:37;88.88;;;66.90;;
51020;SDS011;38907;45.562;8.856;2024-01-15T00:40:40;87.45;;;65.03;;
51020;SDS011;38907;45.562;8.856;2024-01-15T00:45:42;82.82;;;63.42;;
51020;SDS011;38907;45.562;8.856;2024-01-15T00:50:44;87.35;;;63.17;;
51020;SDS011;38907;45.562;8.856;2024-01-15T00:55:47;91.55;;;68.20;;
51020;SDS011;38907;45.562;8.856;2024-01-15T01:00:49;89.85;;;67.70;;
51020;SDS011;38907;45.562;8.856;2024-01-15T01:05:51;96.82;;;70.75;;
51020;SDS011;38907;45.562;8.856;2024-01-15T01:10:55;95.45;;;69.97;;
51020;SDS011;38907;45.562;8.856;2024-01-15T01:15:57;95.03;;;71.38;;
51020;SDS011;38907;45.562;8.856;2024-01-15T01:20:59;91.22;;;68.20;;
51020;SDS011;38907;45.562;8.856;2024-01-15T01:26:02;91.97;;;67.80;;
51020;SDS011;38907;45.562;8.856;2024-01-15T01:31:04;92.93;;;67.90;;
51020;SDS011;38907;45.562;8.856;2024-01-15T01:36:07;92.00;;;65.68;;
51020;SDS011;38907;45.562;8.856;2024-01-15T01:41:10;93.82;;;66.60;;
51020;SDS011;38907;45.562;8.856;2024-01-15T01:46:12;91.20;;;68.97;;
51020;SDS011;38907;45.562;8.856;2024-01-15T01:51:14;92.00;;;67.72;;
51020;SDS011;38907;45.562;8.856;2024-01-15T01:56:18;83.78;;;64.07;;
51020;SDS011;38907;45.562;8.856;2024-01-15T02:01:20;85.97;;;62.63;;
51020;SDS011;38907;45.562;8.856;2024-01-15T02:06:22;92.45;;;65.88;;
51020;SDS011;38907;45.562;8.856;2024-01-15T02:11:25;90.13;;;64.55;;
51020;SDS011;38907;45.562;8.856;2024-01-15T02:16:27;88.65;;;65.72;;
51020;SDS011;38907;45.562;8.856;2024-01-15T02:21:29;92.55;;;67.00;;
51020;SDS011;38907;45.562;8.856;2024-01-15T02:26:33;85.45;;;65.97;;
51020;SDS011;38907;45.562;8.856;2024-01-15T02:31:37;82.90;;;62.40;;
51020;SDS011;38907;45.562;8.856;2024-01-15T02:36:38;92.03;;;65.15;;
51020;SDS011;38907;45.562;8.856;2024-01-15T02:41:41;92.30;;;66.15;;
51020;SDS011;38907;45.562;8.856;2024-01-15T02:46:43;99.15;;;69.57;;
51020;SDS011;38907;45.562;8.856;2024-01-15T02:51:45;93.40;;;66.32;;
51020;SDS011;38907;45.562;8.856;2024-01-15T02:56:48;88.57;;;64.18;;
51020;SDS011;38907;45.562;8.856;2024-01-15T03:01:50;92.53;;;66.10;;
51020;SDS011;38907;45.562;8.856;2024-01-15T03:06:52;89.90;;;63.95;;
51020;SDS011;38907;45.562;8.856;2024-01-15T03:11:55;85.90;;;64.00;;
51020;SDS011;38907;45.562;8.856;2024-01-15T03:16:57;90.60;;;64.90;;
51020;SDS011;38907;45.562;8.856;2024-01-15T03:21:58;86.53;;;64.40;;
51020;SDS011;38907;45.562;8.856;2024-01-15T03:27:02;86.05;;;61.58;;
51020;SDS011;38907;45.562;8.856;2024-01-15T03:32:05;87.40;;;63.08;;
51020;SDS011;38907;45.562;8.856;2024-01-15T03:37:06;86.10;;;60.25;;
51020;SDS011;38907;45.562;8.856;2024-01-15T03:42:10;89.53;;;65.90;;
51020;SDS011;38907;45.562;8.856;2024-01-15T03:47:11;87.05;;;65.38;;
51020;SDS011;38907;45.562;8.856;2024-01-15T03:52:13;86.45;;;62.20;;
51020;SDS011;38907;45.562;8.856;2024-01-15T03:57:16;85.20;;;64.13;;
51020;SDS011;38907;45.562;8.856;2024-01-15T04:02:18;84.70;;;61.97;;
51020;SDS011;38907;45.562;8.856;2024-01-15T04:07:20;83.80;;;60.75;;
51020;SDS011;38907;45.562;8.856;2024-01-15T04:12:23;87.38;;;61.78;;
51020;SDS011;38907;45.562;8.856;2024-01-15T04:17:25;88.45;;;63.65;;
51020;SDS011;38907;45.562;8.856;2024-01-15T04:22:27;84.85;;;62.15;;
51020;SDS011;38907;45.562;8.856;2024-01-15T04:27:31;84.60;;;59.42;;
51020;SDS011;38907;45.562;8.856;2024-01-15T04:32:32;84.38;;;62.97;;
51020;SDS011;38907;45.562;8.856;2024-01-15T04:37:34;84.10;;;60.95;;
51020;SDS011;38907;45.562;8.856;2024-01-15T04:42:37;80.43;;;58.75;;
51020;SDS011;38907;45.562;8.856;2024-01-15T04:47:39;83.13;;;58.38;;
51020;SDS011;38907;45.562;8.856;2024-01-15T04:52:42;80.20;;;59.17;;
51020;SDS011;38907;45.562;8.856;2024-01-15T04:57:46;82.88;;;59.67;;
51020;SDS011;38907;45.562;8.856;2024-01-15T05:02:47;76.50;;;56.47;;
51020;SDS011;38907;45.562;8.856;2024-01-15T05:07:49;84.25;;;60.78;;
51020;SDS011;38907;45.562;8.856;2024-01-15T05:12:52;85.80;;;61.85;;
51020;SDS011;38907;45.562;8.856;2024-01-15T05:17:54;83.40;;;59.85;;
51020;SDS011;38907;45.562;8.856;2024-01-15T05:22:56;80.30;;;60.20;;
51020;SDS011;38907;45.562;8.856;2024-01-15T05:27:59;89.75;;;65.25;;
51020;SDS011;38907;45.562;8.856;2024-01-15T05:33:01;83.93;;;63.13;;
51020;SDS011;38907;45.562;8.856;2024-01-15T05:38:03;84.63;;;60.08;;
51020;SDS011;38907;45.562;8.856;2024-01-15T05:43:06;82.65;;;61.65;;
51020;SDS011;38907;45.562;8.856;2024-01-15T05:48:08;90.22;;;64.22;;
51020;SDS011;38907;45.562;8.856;2024-01-15T05:53:10;92.03;;;65.13;;
51020;SDS011;38907;45.562;8.856;2024-01-15T05:58:13;85.95;;;62.10;;
51020;SDS011;38907;45.562;8.856;2024-01-15T06:03:15;81.85;;;61.15;;
51020;SDS011;38907;45.562;8.856;2024-01-15T06:08:16;85.22;;;62.13;;
51020;SDS011;38907;45.562;8.856;2024-01-15T06:13:22;85.05;;;61.28;;
51020;SDS011;38907;45.562;8.856;2024-01-15T06:18:24;82.90;;;60.60;;
51020;SDS011;38907;45.562;8.856;2024-01-15T06:23:25;89.07;;;62.25;;
51020;SDS011;38907;45.562;8.856;2024-01-15T06:28:29;80.10;;;58.03;;
51020;SDS011;38907;45.562;8.856;2024-01-15T06:33:30;84.43;;;57.92;;
51020;SDS011;38907;45.562;8.856;2024-01-15T06:38:32;85.78;;;59.65;;
51020;SDS011;38907;45.562;8.856;2024-01-15T06:43:36;83.93;;;59.78;;
51020;SDS011;38907;45.562;8.856;2024-01-15T06:48:37;85.90;;;61.92;;
51020;SDS011;38907;45.562;8.856;2024-01-15T06:53:39;84.07;;;60.00;;
51020;SDS011;38907;45.562;8.856;2024-01-15T06:58:42;84.20;;;62.97;;
51020;SDS011;38907;45.562;8.856;2024-01-15T07:03:44;88.68;;;61.75;;
51020;SDS011;38907;45.562;8.856;2024-01-15T07:08:46;76.75;;;55.03;;
51020;SDS011;38907;45.562;8.856;2024-01-15T07:13:49;77.22;;;53.15;;
51020;SDS011;38907;45.562;8.856;2024-01-15T07:18:51;77.18;;;54.45;;
51020;SDS011;38907;45.562;8.856;2024-01-15T07:23:53;116.55;;;55.60;;
51020;SDS011;38907;45.562;8.856;2024-01-15T07:28:56;160.40;;;54.38;;
51020;SDS011;38907;45.562;8.856;2024-01-15T07:33:58;121.50;;;52.97;;
51020;SDS011;38907;45.562;8.856;2024-01-15T07:39:00;85.30;;;49.47;;
51020;SDS011;38907;45.562;8.856;2024-01-15T07:44:04;74.30;;;49.75;;
51020;SDS011;38907;45.562;8.856;2024-01-15T07:49:06;83.65;;;49.88;;
51020;SDS011;38907;45.562;8.856;2024-01-15T07:54:09;66.45;;;48.55;;
51020;SDS011;38907;45.562;8.856;2024-01-15T07:59:13;100.13;;;53.08;;
51020;SDS011;38907;45.562;8.856;2024-01-15T08:04:15;79.50;;;52.00;;
51020;SDS011;38907;45.562;8.856;2024-01-15T08:09:16;67.30;;;48.95;;
51020;SDS011;38907;45.562;8.856;2024-01-15T08:14:19;101.80;;;52.50;;
51020;SDS011;38907;45.562;8.856;2024-01-15T08:19:21;68.20;;;49.90;;
51020;SDS011;38907;45.562;8.856;2024-01-15T08:24:23;72.22;;;50.92;;
51020;SDS011;38907;45.562;8.856;2024-01-15T08:29:26;71.68;;;48.05;;
51020;SDS011;38907;45.562;8.856;2024-01-15T08:34:28;75.50;;;49.67;;
51020;SDS011;38907;45.562;8.856;2024-01-15T08:39:31;90.25;;;50.50;;
51020;SDS011;38907;45.562;8.856;2024-01-15T08:44:34;69.53;;;51.00;;
51020;SDS011;38907;45.562;8.856;2024-01-15T08:49:36;80.13;;;51.53;;
51020;SDS011;38907;45.562;8.856;2024-01-15T08:54:38;81.18;;;51.28;;
51020;SDS011;38907;45.562;8.856;2024-01-15T08:59:41;94.32;;;52.75;;
51020;SDS011;38907;45.562;8.856;2024-01-15T09:04:42;68.70;;;50.70;;
51020;SDS011;38907;45.562;8.856;2024-01-15T09:09:44;79.18;;;53.22;;
51020;SDS011;38907;45.562;8.856;2024-01-15T09:14:47;70.68;;;52.97;;
51020;SDS011;38907;45.562;8.856;2024-01-15T09:19:50;69.80;;;50.97;;
51020;SDS011;38907;45.562;8.856;2024-01-15T09:24:52;82.22;;;52.78;;
51020;SDS011;38907;45.562;8.856;2024-01-15T09:29:55;79.63;;;52.15;;
51020;SDS011;38907;45.562;8.856;2024-01-15T09:34:57;81.97;;;52.88;;
51020;SDS011;38907;45.562;8.856;2024-01-15T09:39:59;88.40;;;55.53;;
51020;SDS011;38907;45.562;8.856;2024-01-15T09:45:02;77.82;;;51.47;;
51020;SDS011;38907;45.562;8.856;2024-01-15T09:50:05;110.53;;;54.58;;
51020;SDS011;38907;45.562;8.856;2024-01-15T09:55:07;87.65;;;54.25;;
51020;SDS011;38907;45.562;8.856;2024-01-15T10:00:12;93.00;;;54.80;;
51020;SDS011;38907;45.562;8.856;2024-01-15T10:05:15;89.57;;;55.60;;
51020;SDS011;38907;45.562;8.856;2024-01-15T10:10:17;98.47;;;60.60;;
51020;SDS011;38907;45.562;8.856;2024-01-15T10:15:23;91.05;;;54.70;;
51020;SDS011;38907;45.562;8.856;2024-01-15T10:20:26;92.22;;;60.28;;
51020;SDS011;38907;45.562;8.856;2024-01-15T10:25:28;81.22;;;56.13;;
51020;SDS011;38907;45.562;8.856;2024-01-15T10:30:32;87.28;;;61.30;;
51020;SDS011;38907;45.562;8.856;2024-01-15T10:35:37;81.40;;;55.97;;
51020;SDS011;38907;45.562;8.856;2024-01-15T10:40:39;69.43;;;52.83;;
51020;SDS011;38907;45.562;8.856;2024-01-15T10:45:44;70.63;;;51.33;;
51020;SDS011;38907;45.562;8.856;2024-01-15T10:50:46;59.63;;;46.40;;
51020;SDS011;38907;45.562;8.856;2024-01-15T10:55:49;59.45;;;44.60;;
51020;SDS011;38907;45.562;8.856;2024-01-15T11:00:52;54.53;;;39.65;;
51020;SDS011;38907;45.562;8.856;2024-01-15T11:05:54;53.35;;;41.67;;
51020;SDS011;38907;45.562;8.856;2024-01-15T11:10:56;48.55;;;39.47;;
51020;SDS011;38907;45.562;8.856;2024-01-15T11:16:01;49.72;;;36.47;;
51020;SDS011;38907;45.562;8.856;2024-01-15T11:21:22;44.47;;;33.28;;
51020;SDS011;38907;45.562;8.856;2024-01-15T11:31:28;40.88;;;33.80;;
51020;SDS011;38907;45.562;8.856;2024-01-15T11:42:03;38.47;;;30.70;;
51020;SDS011;38907;45.562;8.856;2024-01-15T11:47:06;41.67;;;34.03;;
51020;SDS011;38907;45.562;8.856;2024-01-15T11:52:09;49.55;;;39.35;;
51020;SDS011;38907;45.562;8.856;2024-01-15T11:57:15;51.10;;;38.47;;
51020;SDS011;38907;45.562;8.856;2024-01-15T12:02:24;50.72;;;41.17;;
51020;SDS011;38907;45.562;8.856;2024-01-15T12:07:26;53.05;;;41.85;;
51020;SDS011;38907;45.562;8.856;2024-01-15T12:12:31;52.50;;;43.75;;
51020;SDS011;38907;45.562;8.856;2024-01-15T12:17:40;49.97;;;39.13;;
51020;SDS011;38907;45.562;8.856;2024-01-15T12:22:42;54.95;;;40.88;;
51020;SDS011;38907;45.562;8.856;2024-01-15T12:27:44;49.08;;;38.05;;
51020;SDS011;38907;45.562;8.856;2024-01-15T12:32:47;52.00;;;41.88;;
51020;SDS011;38907;45.562;8.856;2024-01-15T12:37:49;42.13;;;35.20;;
51020;SDS011;38907;45.562;8.856;2024-01-15T12:42:51;48.20;;;37.38;;
51020;SDS011;38907;45.562;8.856;2024-01-15T12:47:54;45.22;;;35.67;;
51020;SDS011;38907;45.562;8.856;2024-01-15T12:52:56;38.60;;;29.92;;
51020;SDS011;38907;45.562;8.856;2024-01-15T12:57:59;39.40;;;29.13;;
51020;SDS011;38907;45.562;8.856;2024-01-15T13:03:03;28.60;;;22.95;;
51020;SDS011;38907;45.562;8.856;2024-01-15T13:08:05;24.90;;;18.80;;
51020;SDS011;38907;45.562;8.856;2024-01-15T13:13:07;21.58;;;16.35;;
51020;SDS011;38907;45.562;8.856;2024-01-15T13:18:10;19.40;;;14.02;;
51020;SDS011;38907;45.562;8.856;2024-01-15T13:23:12;18.88;;;14.27;;
51020;SDS011;38907;45.562;8.856;2024-01-15T13:28:14;21.00;;;15.25;;
51020;SDS011;38907;45.562;8.856;2024-01-15T13:33:17;20.75;;;14.98;;
51020;SDS011;38907;45.562;8.856;2024-01-15T13:38:19;23.80;;;20.50;;
51020;SDS011;38907;45.562;8.856;2024-01-15T13:43:21;18.80;;;14.88;;
51020;SDS011;38907;45.562;8.856;2024-01-15T13:48:24;16.58;;;13.75;;
51020;SDS011;38907;45.562;8.856;2024-01-15T13:53:26;18.88;;;14.63;;
51020;SDS011;38907;45.562;8.856;2024-01-15T13:58:28;23.13;;;16.33;;
51020;SDS011;38907;45.562;8.856;2024-01-15T14:03:31;19.45;;;13.07;;
51020;SDS011;38907;45.562;8.856;2024-01-15T14:08:34;20.92;;;15.75;;
51020;SDS011;38907;45.562;8.856;2024-01-15T14:13:36;18.83;;;14.98;;
51020;SDS011;38907;45.562;8.856;2024-01-15T14:18:39;25.40;;;20.55;;
51020;SDS011;38907;45.562;8.856;2024-01-15T14:23:41;42.78;;;26.30;;
51020;SDS011;38907;45.562;8.856;2024-01-15T14:28:42;20.73;;;15.80;;
51020;SDS011;38907;45.562;8.856;2024-01-15T14:33:47;19.33;;;15.60;;
51020;SDS011;38907;45.562;8.856;2024-01-15T14:43:51;20.85;;;17.40;;
51020;SDS011;38907;45.562;8.856;2024-01-15T14:48:54;19.08;;;15.52;;
51020;SDS011;38907;45.562;8.856;2024-01-15T14:53:56;21.95;;;16.30;;
51020;SDS011;38907;45.562;8.856;2024-01-15T14:58:58;22.13;;;17.05;;
51020;SDS011;38907;45.562;8.856;2024-01-15T15:04:01;23.63;;;16.10;;
51020;SDS011;38907;45.562;8.856;2024-01-15T15:09:03;18.85;;;14.18;;
51020;SDS011;38907;45.562;8.856;2024-01-15T15:14:09;19.92;;;14.25;;
51020;SDS011;38907;45.562;8.856;2024-01-15T15:19:12;22.15;;;14.77;;
51020;SDS011;38907;45.562;8.856;2024-01-15T15:29:16;20.83;;;16.08;;
51020;SDS011;38907;45.562;8.856;2024-01-15T15:34:20;26.52;;;18.60;;
51020;SDS011;38907;45.562;8.856;2024-01-15T15:39:21;23.25;;;16.80;;
51020;SDS011;38907;45.562;8.856;2024-01-15T15:44:23;24.55;;;17.25;;
51020;SDS011;38907;45.562;8.856;2024-01-15T15:49:26;25.48;;;18.63;;
51020;SDS011;38907;45.562;8.856;2024-01-15T15:54:28;21.38;;;17.33;;
51020;SDS011;38907;45.562;8.856;2024-01-15T15:59:30;25.33;;;18.77;;
51020;SDS011;38907;45.562;8.856;2024-01-15T16:04:33;36.03;;;27.50;;
51020;SDS011;38907;45.562;8.856;2024-01-15T16:09:35;32.53;;;26.25;;
51020;SDS011;38907;45.562;8.856;2024-01-15T16:14:37;36.03;;;26.55;;
51020;SDS011;38907;45.562;8.856;2024-01-15T16:19:40;36.90;;;27.92;;
51020;SDS011;38907;45.562;8.856;2024-01-15T16:24:41;32.35;;;26.02;;
51020;SDS011;38907;45.562;8.856;2024-01-15T16:29:43;38.30;;;27.20;;
51020;SDS011;38907;45.562;8.856;2024-01-15T16:34:46;33.42;;;24.77;;
51020;SDS011;38907;45.562;8.856;2024-01-15T16:39:48;30.52;;;23.00;;
51020;SDS011;38907;45.562;8.856;2024-01-15T16:44:50;33.58;;;22.73;;
51020;SDS011;38907;45.562;8.856;2024-01-15T16:49:53;32.22;;;22.27;;
51020;SDS011;38907;45.562;8.856;2024-01-15T16:54:55;26.80;;;20.35;;
51020;SDS011;38907;45.562;8.856;2024-01-15T16:59:57;27.33;;;20.88;;
51020;SDS011;38907;45.562;8.856;2024-01-15T17:05:00;31.17;;;23.60;;
51020;SDS011;38907;45.562;8.856;2024-01-15T17:10:02;27.77;;;21.25;;
51020;SDS011;38907;45.562;8.856;2024-01-15T17:15:05;33.50;;;24.92;;
51020;SDS011;38907;45.562;8.856;2024-01-15T17:20:09;43.50;;;32.53;;
51020;SDS011;38907;45.562;8.856;2024-01-15T17:25:12;39.13;;;26.98;;
51020;SDS011;38907;45.562;8.856;2024-01-15T17:30:14;34.33;;;27.13;;
51020;SDS011;38907;45.562;8.856;2024-01-15T17:35:18;32.50;;;23.47;;
51020;SDS011;38907;45.562;8.856;2024-01-15T17:40:20;80.78;;;61.78;;
51020;SDS011;38907;45.562;8.856;2024-01-15T17:45:22;58.78;;;44.28;;
51020;SDS011;38907;45.562;8.856;2024-01-15T17:55:29;40.92;;;32.25;;
51020;SDS011;38907;45.562;8.856;2024-01-15T18:00:31;39.28;;;27.73;;
51020;SDS011;38907;45.562;8.856;2024-01-15T18:05:34;38.20;;;28.33;;
51020;SDS011;38907;45.562;8.856;2024-01-15T18:10:36;47.20;;;32.83;;
51020;SDS011;38907;45.562;8.856;2024-01-15T18:15:38;59.40;;;40.55;;
51020;SDS011;38907;45.562;8.856;2024-01-15T18:20:41;88.57;;;58.28;;
51020;SDS011;38907;45.562;8.856;2024-01-15T18:25:43;57.05;;;40.30;;
51020;SDS011;38907;45.562;8.856;2024-01-15T18:30:45;72.72;;;53.63;;
51020;SDS011;38907;45.562;8.856;2024-01-15T18:35:48;60.40;;;44.53;;
51020;SDS011;38907;45.562;8.856;2024-01-15T18:40:50;48.35;;;35.72;;
51020;SDS011;38907;45.562;8.856;2024-01-15T18:45:53;50.22;;;35.67;;
51020;SDS011;38907;45.562;8.856;2024-01-15T18:50:56;49.28;;;36.03;;
51020;SDS011;38907;45.562;8.856;2024-01-15T18:56:00;49.42;;;36.70;;
51020;SDS011;38907;45.562;8.856;2024-01-15T19:06:06;58.00;;;41.38;;
51020;SDS011;38907;45.562;8.856;2024-01-15T19:11:08;47.97;;;35.03;;
51020;SDS011;38907;45.562;8.856;2024-01-15T19:16:10;58.88;;;44.88;;
51020;SDS011;38907;45.562;8.856;2024-01-15T19:21:14;68.50;;;53.85;;
51020;SDS011;38907;45.562;8.856;2024-01-15T19:26:16;58.92;;;44.33;;
51020;SDS011;38907;45.562;8.856;2024-01-15T19:31:18;54.03;;;39.17;;
51020;SDS011;38907;45.562;8.856;2024-01-15T19:36:22;55.08;;;35.70;;
51020;SDS011;38907;45.562;8.856;2024-01-15T19:41:24;56.17;;;39.70;;
51020;SDS011;38907;45.562;8.856;2024-01-15T19:46:26;64.78;;;41.88;;
51020;SDS011;38907;45.562;8.856;2024-01-15T19:51:29;70.72;;;49.78;;
51020;SDS011;38907;45.562;8.856;2024-01-15T19:56:31;57.63;;;42.25;;
51020;SDS011;38907;45.562;8.856;2024-01-15T20:01:37;62.15;;;44.70;;
51020;SDS011;38907;45.562;8.856;2024-01-15T20:06:41;57.22;;;42.72;;
51020;SDS011;38907;45.562;8.856;2024-01-15T20:11:42;50.75;;;37.92;;
51020;SDS011;38907;45.562;8.856;2024-01-15T20:16:45;59.50;;;40.47;;
51020;SDS011;38907;45.562;8.856;2024-01-15T20:21:49;55.13;;;38.63;;
51020;SDS011;38907;45.562;8.856;2024-01-15T20:26:51;50.30;;;37.60;;
51020;SDS011;38907;45.562;8.856;2024-01-15T20:31:53;78.63;;;54.97;;
51020;SDS011;38907;45.562;8.856;2024-01-15T20:36:56;81.20;;;57.20;;
51020;SDS011;38907;45.562;8.856;2024-01-15T20:41:58;62.67;;;42.10;;
51020;SDS011;38907;45.562;8.856;2024-01-15T20:46:59;55.30;;;40.10;;
51020;SDS011;38907;45.562;8.856;2024-01-15T20:52:03;60.92;;;45.80;;
51020;SDS011;38907;45.562;8.856;2024-01-15T21:02:07;57.38;;;40.67;;
51020;SDS011;38907;45.562;8.856;2024-01-15T21:07:10;63.30;;;45.13;;
51020;SDS011;38907;45.562;8.856;2024-01-15T21:12:11;84.20;;;55.38;;
51020;SDS011;38907;45.562;8.856;2024-01-15T21:17:13;72.53;;;52.67;;
51020;SDS011;38907;45.562;8.856;2024-01-15T21:22:17;75.20;;;51.95;;
51020;SDS011;38907;45.562;8.856;2024-01-15T21:27:18;75.65;;;53.00;;
51020;SDS011;38907;45.562;8.856;2024-01-15T21:32:20;82.88;;;54.88;;
51020;SDS011;38907;45.562;8.856;2024-01-15T21:37:24;71.35;;;52.75;;
51020;SDS011;38907;45.562;8.856;2024-01-15T21:42:27;80.03;;;57.40;;
51020;SDS011;38907;45.562;8.856;2024-01-15T21:47:29;81.28;;;54.10;;
51020;SDS011;38907;45.562;8.856;2024-01-15T21:52:32;83.63;;;56.17;;
51020;SDS011;38907;45.562;8.856;2024-01-15T21:57:33;79.07;;;51.00;;
51020;SDS011;38907;45.562;8.856;2024-01-15T22:02:36;70.70;;;51.70;;
51020;SDS011;38907;45.562;8.856;2024-01-15T22:07:41;72.40;;;50.67;;
51020;SDS011;38907;45.562;8.856;2024-01-15T22:12:44;77.47;;;51.85;;
51020;SDS011;38907;45.562;8.856;2024-01-15T22:17:46;77.97;;;52.28;;
51020;SDS011;38907;45.562;8.856;2024-01-15T22:22:49;91.15;;;60.80;;
51020;SDS011;38907;45.562;8.856;2024-01-15T22:27:51;83.85;;;57.55;;
51020;SDS011;38907;45.562;8.856;2024-01-15T22:32:53;76.20;;;53.85;;
51020;SDS011;38907;45.562;8.856;2024-01-15T22:37:56;78.28;;;53.25;;
51020;SDS011;38907;45.562;8.856;2024-01-15T22:43:01;87.50;;;56.83;;
51020;SDS011;38907;45.562;8.856;2024-01-15T22:48:03;88.93;;;57.88;;
51020;SDS011;38907;45.562;8.856;2024-01-15T22:53:06;82.45;;;58.05;;
51020;SDS011;38907;45.562;8.856;2024-01-15T22:58:09;80.63;;;55.13;;
51020;SDS011;38907;45.562;8.856;2024-01-15T23:03:11;76.85;;;52.90;;
51020;SDS011;38907;45.562;8.856;2024-01-15T23:08:14;75.47;;;52.03;;
51020;SDS011;38907;45.562;8.856;2024-01-15T23:13:16;70.50;;;50.42;;
51020;SDS011;38907;45.562;8.856;2024-01-15T23:18:18;72.15;;;50.55;;
51020;SDS011;38907;45.562;8.856;2024-01-15T23:23:21;74.35;;;50.33;;
51020;SDS011;38907;45.562;8.856;2024-01-15T23:28:22;72.57;;;50.33;;
51020;SDS011;38907;45.562;8.856;2024-01-15T23:33:24;73.65;;;49.80;;
51020;SDS011;38907;45.562;8.856;2024-01-15T23:38:27;74.32;;;50.63;;
51020;SDS011;38907;45.562;8.856;2024-01-15T23:43:30;79.40;;;53.47;;
51020;SDS011;38907;45.562;8.856;2024-01-15T23:48:32;69.80;;;50.03;;
51020;SDS011;38907;45.562;8.856;2024-01-15T23:53:35;78.38;;;51.05;;
51020;SDS011;38907;45.562;8.856;2024-01-15T23:58:37;79.15;;;53.75;;
